sensor_id;sensor_type;location;lat;lon;timestamp;pressure;altitude;pressure_sealevel;temperature;humidity
33185;BME280;19550;42.872;25.494;2022-12-18T00:00:47;97131.59;;;10.19;100.00
33185;BME280;19550;42.872;25.494;2022-12-18T00:03:14;97129.28;;;10.26;100.00
33185;BME280;19550;42.872;25.494;2022-12-18T00:05:48;97133.03;;;10.35;100.00
33185;BME280;19550;42.872;25.494;2022-12-18T00:08:15;97135.25;;;10.33;100.00
33185;BME280;19550;42.872;25.494;2022-12-18T00:10:41;97131.91;;;10.37;100.00
33185;BME280;19550;42.872;25.494;2022-12-18T00:13:08;97140.50;;;10.35;100.00
33185;BME280;19550;42.872;25.494;2022-12-18T00:15:38;97144.50;;;10.29;100.00
33185;BME280;19550;42.872;25.494;2022-12-18T00:18:05;97159.06;;;10.16;100.00
33185;BME280;19550;42.872;25.494;2022-12-18T00:20:35;97160.19;;;10.15;100.00
33185;BME280;19550;42.872;25.494;2022-12-18T00:23:02;97162.94;;;10.15;100.00
33185;BME280;19550;42.872;25.494;2022-12-18T00:25:29;97168.78;;;10.13;100.00
33185;BME280;19550;42.872;25.494;2022-12-18T00:27:56;97167.66;;;10.14;100.00
33185;BME280;19550;42.872;25.494;2022-12-18T00:30:23;97158.31;;;10.10;100.00
33185;BME280;19550;42.872;25.494;2022-12-18T00:32:51;97160.31;;;10.05;100.00
33185;BME280;19550;42.872;25.494;2022-12-18T00:35:18;97171.25;;;10.15;100.00
33185;BME280;19550;42.872;25.494;2022-12-18T00:37:45;97167.91;;;10.18;100.00
33185;BME280;19550;42.872;25.494;2022-12-18T00:40:12;97171.56;;;10.13;100.00
33185;BME280;19550;42.872;25.494;2022-12-18T00:42:39;97180.56;;;10.24;100.00
33185;BME280;19550;42.872;25.494;2022-12-18T00:45:25;97185.69;;;10.12;100.00
33185;BME280;19550;42.872;25.494;2022-12-18T00:47:54;97177.09;;;10.13;100.00
33185;BME280;19550;42.872;25.494;2022-12-18T00:50:21;97177.25;;;10.03;100.00
33185;BME280;19550;42.872;25.494;2022-12-18T00:52:48;97172.00;;;10.02;100.00
33185;BME280;19550;42.872;25.494;2022-12-18T00:55:16;97172.22;;;10.05;100.00
33185;BME280;19550;42.872;25.494;2022-12-18T00:57:43;97180.84;;;10.04;100.00
33185;BME280;19550;42.872;25.494;2022-12-18T01:00:13;97186.44;;;9.98;100.00
33185;BME280;19550;42.872;25.494;2022-12-18T01:02:40;97180.69;;;9.95;100.00
33185;BME280;19550;42.872;25.494;2022-12-18T01:05:10;97186.28;;;9.90;100.00
33185;BME280;19550;42.872;25.494;2022-12-18T01:07:37;97184.94;;;10.06;100.00
33185;BME280;19550;42.872;25.494;2022-12-18T01:10:05;97201.84;;;10.05;100.00
33185;BME280;19550;42.872;25.494;2022-12-18T01:12:33;97195.00;;;10.02;100.00
33185;BME280;19550;42.872;25.494;2022-12-18T01:15:00;97197.88;;;9.92;100.00
33185;BME280;19550;42.872;25.494;2022-12-18T01:17:27;97200.59;;;9.97;100.00
33185;BME280;19550;42.872;25.494;2022-12-18T01:19:54;97196.47;;;9.94;100.00
33185;BME280;19550;42.872;25.494;2022-12-18T01:22:22;97193.09;;;9.97;100.00
33185;BME280;19550;42.872;25.494;2022-12-18T01:24:49;97198.34;;;9.99;100.00
33185;BME280;19550;42.872;25.494;2022-12-18T01:27:15;97188.16;;;9.94;100.00
33185;BME280;19550;42.872;25.494;2022-12-18T01:29:42;97197.50;;;9.98;100.00
33185;BME280;19550;42.872;25.494;2022-12-18T01:32:09;97194.59;;;9.90;100.00
33185;BME280;19550;42.872;25.494;2022-12-18T01:34:36;97194.59;;;9.90;100.00
33185;BME280;19550;42.872;25.494;2022-12-18T01:37:03;97189.44;;;9.83;100.00
33185;BME280;19550;42.872;25.494;2022-12-18T01:39:32;97194.72;;;9.80;100.00
33185;BME280;19550;42.872;25.494;2022-12-18T01:41:59;97195.97;;;9.69;100.00
33185;BME280;19550;42.872;25.494;2022-12-18T01:45:05;97203.75;;;9.67;100.00
33185;BME280;19550;42.872;25.494;2022-12-18T01:47:36;97203.44;;;9.68;100.00
33185;BME280;19550;42.872;25.494;2022-12-18T01:50:08;97200.28;;;9.56;100.00
33185;BME280;19550;42.872;25.494;2022-12-18T01:52:36;97201.31;;;9.60;100.00
33185;BME280;19550;42.872;25.494;2022-12-18T01:55:06;97205.50;;;9.57;100.00
33185;BME280;19550;42.872;25.494;2022-12-18T01:57:33;97204.56;;;9.43;100.00
33185;BME280;19550;42.872;25.494;2022-12-18T02:00:04;97206.75;;;9.46;100.00
33185;BME280;19550;42.872;25.494;2022-12-18T02:02:31;97215.66;;;9.43;100.00
33185;BME280;19550;42.872;25.494;2022-12-18T02:04:58;97210.59;;;9.50;100.00
33185;BME280;19550;42.872;25.494;2022-12-18T02:07:32;97202.28;;;9.50;100.00
33185;BME280;19550;42.872;25.494;2022-12-18T02:10:10;97211.34;;;9.56;100.00
33185;BME280;19550;42.872;25.494;2022-12-18T02:12:44;97211.00;;;9.63;100.00
33185;BME280;19550;42.872;25.494;2022-12-18T02:15:15;97225.41;;;9.60;100.00
33185;BME280;19550;42.872;25.494;2022-12-18T02:17:49;97216.06;;;9.55;100.00
33185;BME280;19550;42.872;25.494;2022-12-18T02:20:21;97217.16;;;9.54;100.00
33185;BME280;19550;42.872;25.494;2022-12-18T02:23:01;97226.06;;;9.51;100.00
33185;BME280;19550;42.872;25.494;2022-12-18T02:25:40;97214.50;;;9.44;100.00
33185;BME280;19550;42.872;25.494;2022-12-18T02:28:15;97222.81;;;9.44;100.00
33185;BME280;19550;42.872;25.494;2022-12-18T02:30:45;97217.94;;;9.36;100.00
33185;BME280;19550;42.872;25.494;2022-12-18T02:33:14;97220.69;;;9.36;100.00
33185;BME280;19550;42.872;25.494;2022-12-18T02:35:42;97227.56;;;9.39;100.00
33185;BME280;19550;42.872;25.494;2022-12-18T02:38:12;97222.34;;;9.08;100.00
33185;BME280;19550;42.872;25.494;2022-12-18T02:40:40;97225.59;;;9.15;100.00
33185;BME280;19550;42.872;25.494;2022-12-18T02:43:09;97226.38;;;9.21;100.00
33185;BME280;19550;42.872;25.494;2022-12-18T02:45:46;97232.25;;;9.14;100.00
33185;BME280;19550;42.872;25.494;2022-12-18T02:48:13;97241.66;;;9.13;100.00
33185;BME280;19550;42.872;25.494;2022-12-18T02:50:45;97244.38;;;9.18;100.00
33185;BME280;19550;42.872;25.494;2022-12-18T02:53:20;97233.84;;;9.21;100.00
33185;BME280;19550;42.872;25.494;2022-12-18T02:55:58;97238.00;;;9.23;100.00
33185;BME280;19550;42.872;25.494;2022-12-18T02:58:33;97252.72;;;9.13;100.00
33185;BME280;19550;42.872;25.494;2022-12-18T03:01:09;97263.28;;;9.06;100.00
33185;BME280;19550;42.872;25.494;2022-12-18T03:03:40;97267.47;;;9.04;100.00
33185;BME280;19550;42.872;25.494;2022-12-18T03:06:12;97247.97;;;8.90;100.00
33185;BME280;19550;42.872;25.494;2022-12-18T03:08:43;97271.09;;;8.99;100.00
33185;BME280;19550;42.872;25.494;2022-12-18T03:11:12;97266.31;;;9.10;100.00
33185;BME280;19550;42.872;25.494;2022-12-18T03:13:44;97256.09;;;9.10;100.00
33185;BME280;19550;42.872;25.494;2022-12-18T03:16:17;97268.16;;;9.20;100.00
33185;BME280;19550;42.872;25.494;2022-12-18T03:18:50;97271.75;;;9.20;100.00
33185;BME280;19550;42.872;25.494;2022-12-18T03:21:22;97269.25;;;9.24;100.00
33185;BME280;19550;42.872;25.494;2022-12-18T03:23:51;97277.91;;;9.12;100.00
33185;BME280;19550;42.872;25.494;2022-12-18T03:26:22;97277.91;;;9.12;100.00
33185;BME280;19550;42.872;25.494;2022-12-18T03:28:53;97285.97;;;9.08;100.00
33185;BME280;19550;42.872;25.494;2022-12-18T03:31:23;97285.41;;;9.06;100.00
33185;BME280;19550;42.872;25.494;2022-12-18T03:33:54;97286.06;;;8.93;100.00
33185;BME280;19550;42.872;25.494;2022-12-18T03:36:22;97297.13;;;8.93;100.00
33185;BME280;19550;42.872;25.494;2022-12-18T03:38:50;97298.34;;;8.82;100.00
33185;BME280;19550;42.872;25.494;2022-12-18T03:41:21;97296.63;;;8.86;100.00
33185;BME280;19550;42.872;25.494;2022-12-18T03:43:54;97307.69;;;8.86;100.00
33185;BME280;19550;42.872;25.494;2022-12-18T03:46:28;97316.59;;;8.83;100.00
33185;BME280;19550;42.872;25.494;2022-12-18T03:49:01;97309.16;;;8.73;100.00
33185;BME280;19550;42.872;25.494;2022-12-18T03:51:38;97321.28;;;8.77;100.00
33185;BME280;19550;42.872;25.494;2022-12-18T03:54:06;97327.31;;;8.85;100.00
33185;BME280;19550;42.872;25.494;2022-12-18T03:56:38;97303.06;;;8.76;100.00
33185;BME280;19550;42.872;25.494;2022-12-18T03:59:07;97330.63;;;8.87;100.00
33185;BME280;19550;42.872;25.494;2022-12-18T04:01:40;97329.28;;;8.84;100.00
33185;BME280;19550;42.872;25.494;2022-12-18T04:04:10;97335.06;;;8.88;100.00
33185;BME280;19550;42.872;25.494;2022-12-18T04:06:40;97327.38;;;8.80;100.00
33185;BME280;19550;42.872;25.494;2022-12-18T04:09:07;97337.19;;;8.57;100.00
33185;BME280;19550;42.872;25.494;2022-12-18T04:11:34;97355.16;;;8.54;100.00
33185;BME280;19550;42.872;25.494;2022-12-18T04:14:01;97354.06;;;8.55;100.00
33185;BME280;19550;42.872;25.494;2022-12-18T04:16:28;97359.03;;;8.53;100.00
33185;BME280;19550;42.872;25.494;2022-12-18T04:18:56;97357.13;;;8.49;100.00
33185;BME280;19550;42.872;25.494;2022-12-18T04:21:23;97366.31;;;8.34;100.00
33185;BME280;19550;42.872;25.494;2022-12-18T04:23:50;97373.22;;;8.31;100.00
33185;BME280;19550;42.872;25.494;2022-12-18T04:26:16;97377.16;;;8.00;100.00
33185;BME280;19550;42.872;25.494;2022-12-18T04:28:43;97385.47;;;7.95;100.00
33185;BME280;19550;42.872;25.494;2022-12-18T04:31:10;97386.00;;;7.92;100.00
33185;BME280;19550;42.872;25.494;2022-12-18T04:33:37;97399.78;;;8.07;100.00
33185;BME280;19550;42.872;25.494;2022-12-18T04:36:06;97400.91;;;8.01;100.00
33185;BME280;19550;42.872;25.494;2022-12-18T04:38:33;97405.34;;;7.97;100.00
33185;BME280;19550;42.872;25.494;2022-12-18T04:41:00;97403.94;;;7.99;100.00
33185;BME280;19550;42.872;25.494;2022-12-18T04:43:27;97413.91;;;7.95;100.00
33185;BME280;19550;42.872;25.494;2022-12-18T04:46:01;97418.31;;;7.91;100.00
33185;BME280;19550;42.872;25.494;2022-12-18T04:48:28;97424.09;;;7.95;100.00
33185;BME280;19550;42.872;25.494;2022-12-18T04:50:55;97420.53;;;7.84;100.00
33185;BME280;19550;42.872;25.494;2022-12-18T04:53:23;97428.53;;;7.91;100.00
33185;BME280;19550;42.872;25.494;2022-12-18T04:55:50;97422.19;;;7.85;100.00
33185;BME280;19550;42.872;25.494;2022-12-18T04:58:16;97426.88;;;7.95;100.00
33185;BME280;19550;42.872;25.494;2022-12-18T05:00:43;97431.81;;;7.98;100.00
33185;BME280;19550;42.872;25.494;2022-12-18T05:03:10;97432.38;;;7.85;100.00
33185;BME280;19550;42.872;25.494;2022-12-18T05:05:37;97433.22;;;7.85;100.00
33185;BME280;19550;42.872;25.494;2022-12-18T05:08:04;97438.50;;;7.77;100.00
33185;BME280;19550;42.872;25.494;2022-12-18T05:10:32;97440.97;;;7.68;100.00
33185;BME280;19550;42.872;25.494;2022-12-18T05:12:59;97445.66;;;7.78;100.00
33185;BME280;19550;42.872;25.494;2022-12-18T05:15:27;97442.63;;;7.69;100.00
33185;BME280;19550;42.872;25.494;2022-12-18T05:17:54;97454.50;;;7.70;100.00
33185;BME280;19550;42.872;25.494;2022-12-18T05:20:21;97449.25;;;7.73;100.00
33185;BME280;19550;42.872;25.494;2022-12-18T05:22:48;97456.16;;;7.71;100.00
33185;BME280;19550;42.872;25.494;2022-12-18T05:25:15;97461.41;;;7.57;100.00
33185;BME280;19550;42.872;25.494;2022-12-18T05:27:43;97466.91;;;7.67;100.00
33185;BME280;19550;42.872;25.494;2022-12-18T05:30:11;97474.09;;;7.63;100.00
33185;BME280;19550;42.872;25.494;2022-12-18T05:32:38;97483.19;;;7.64;100.00
33185;BME280;19550;42.872;25.494;2022-12-18T05:35:07;97472.13;;;7.58;100.00
33185;BME280;19550;42.872;25.494;2022-12-18T05:37:34;97479.31;;;7.54;100.00
33185;BME280;19550;42.872;25.494;2022-12-18T05:40:02;97480.41;;;7.43;100.00
33185;BME280;19550;42.872;25.494;2022-12-18T05:42:29;97480.69;;;7.37;100.00
33185;BME280;19550;42.872;25.494;2022-12-18T05:44:58;97485.91;;;7.23;100.00
33185;BME280;19550;42.872;25.494;2022-12-18T05:47:24;97481.75;;;7.21;100.00
33185;BME280;19550;42.872;25.494;2022-12-18T05:49:51;97489.75;;;7.27;100.00
33185;BME280;19550;42.872;25.494;2022-12-18T05:52:18;97479.28;;;7.29;100.00
33185;BME280;19550;42.872;25.494;2022-12-18T05:54:45;97498.63;;;7.44;100.00
33185;BME280;19550;42.872;25.494;2022-12-18T05:57:12;97489.22;;;7.40;100.00
33185;BME280;19550;42.872;25.494;2022-12-18T05:59:38;97497.50;;;7.45;100.00
33185;BME280;19550;42.872;25.494;2022-12-18T06:02:07;97503.31;;;7.49;100.00
33185;BME280;19550;42.872;25.494;2022-12-18T06:04:34;97511.03;;;7.42;100.00
33185;BME280;19550;42.872;25.494;2022-12-18T06:07:00;97517.66;;;7.41;100.00
33185;BME280;19550;42.872;25.494;2022-12-18T06:09:28;97522.84;;;7.32;100.00
33185;BME280;19550;42.872;25.494;2022-12-18T06:11:55;97516.81;;;7.40;100.00
33185;BME280;19550;42.872;25.494;2022-12-18T06:14:22;97522.88;;;7.37;100.00
33185;BME280;19550;42.872;25.494;2022-12-18T06:16:50;97528.94;;;7.29;100.00
33185;BME280;19550;42.872;25.494;2022-12-18T06:19:18;97539.44;;;7.37;100.00
33185;BME280;19550;42.872;25.494;2022-12-18T06:21:46;97534.19;;;7.41;100.00
33185;BME280;19550;42.872;25.494;2022-12-18T06:24:14;97543.88;;;7.43;100.00
33185;BME280;19550;42.872;25.494;2022-12-18T06:26:41;97545.22;;;7.41;100.00
33185;BME280;19550;42.872;25.494;2022-12-18T06:29:08;97552.41;;;7.42;100.00
33185;BME280;19550;42.872;25.494;2022-12-18T06:31:35;97556.81;;;7.43;100.00
33185;BME280;19550;42.872;25.494;2022-12-18T06:34:02;97564.00;;;7.49;100.00
33185;BME280;19550;42.872;25.494;2022-12-18T06:36:31;97568.44;;;7.65;100.00
33185;BME280;19550;42.872;25.494;2022-12-18T06:38:58;97568.19;;;7.72;100.00
33185;BME280;19550;42.872;25.494;2022-12-18T06:41:25;97582.22;;;7.60;100.00
33185;BME280;19550;42.872;25.494;2022-12-18T06:43:52;97572.03;;;7.61;100.00
33185;BME280;19550;42.872;25.494;2022-12-18T06:46:18;97582.78;;;7.57;100.00
33185;BME280;19550;42.872;25.494;2022-12-18T06:48:47;97591.34;;;7.66;100.00
33185;BME280;19550;42.872;25.494;2022-12-18T06:51:17;97593.28;;;7.60;100.00
33185;BME280;19550;42.872;25.494;2022-12-18T06:53:45;97600.19;;;7.68;100.00
33185;BME280;19550;42.872;25.494;2022-12-18T06:56:12;97607.38;;;7.69;100.00
33185;BME280;19550;42.872;25.494;2022-12-18T06:58:39;97599.63;;;7.55;100.00
33185;BME280;19550;42.872;25.494;2022-12-18T07:01:08;97604.31;;;7.60;100.00
33185;BME280;19550;42.872;25.494;2022-12-18T07:03:36;97603.75;;;7.58;100.00
33185;BME280;19550;42.872;25.494;2022-12-18T07:06:03;97620.03;;;7.59;100.00
33185;BME280;19550;42.872;25.494;2022-12-18T07:08:31;97631.38;;;7.63;100.00
33185;BME280;19550;42.872;25.494;2022-12-18T07:11:03;97618.91;;;7.50;100.00
33185;BME280;19550;42.872;25.494;2022-12-18T07:13:30;97627.22;;;7.61;100.00
33185;BME280;19550;42.872;25.494;2022-12-18T07:16:03;97602.38;;;7.55;100.00
33185;BME280;19550;42.872;25.494;2022-12-18T07:18:30;97618.66;;;7.62;100.00
33185;BME280;19550;42.872;25.494;2022-12-18T07:20:57;97633.84;;;7.65;100.00
33185;BME280;19550;42.872;25.494;2022-12-18T07:23:24;97633.03;;;7.64;100.00
33185;BME280;19550;42.872;25.494;2022-12-18T07:25:51;97635.78;;;7.64;100.00
33185;BME280;19550;42.872;25.494;2022-12-18T07:28:19;97638.25;;;7.66;100.00
33185;BME280;19550;42.872;25.494;2022-12-18T07:30:46;97630.03;;;7.71;100.00
33185;BME280;19550;42.872;25.494;2022-12-18T07:33:13;97640.50;;;7.69;100.00
33185;BME280;19550;42.872;25.494;2022-12-18T07:35:40;97642.72;;;7.77;100.00
33185;BME280;19550;42.872;25.494;2022-12-18T07:38:06;97643.28;;;7.84;100.00
33185;BME280;19550;42.872;25.494;2022-12-18T07:40:34;97653.78;;;7.92;100.00
33185;BME280;19550;42.872;25.494;2022-12-18T07:43:00;97649.38;;;7.96;100.00
33185;BME280;19550;42.872;25.494;2022-12-18T07:45:29;97649.91;;;7.93;100.00
33185;BME280;19550;42.872;25.494;2022-12-18T07:47:56;97648.81;;;7.94;100.00
33185;BME280;19550;42.872;25.494;2022-12-18T07:50:22;97644.13;;;7.94;100.00
33185;BME280;19550;42.872;25.494;2022-12-18T07:52:49;97654.38;;;8.04;100.00
33185;BME280;19550;42.872;25.494;2022-12-18T07:55:16;97658.25;;;8.03;100.00
33185;BME280;19550;42.872;25.494;2022-12-18T07:57:43;97638.34;;;7.91;100.00
33185;BME280;19550;42.872;25.494;2022-12-18T08:00:11;97656.84;;;8.06;100.00
33185;BME280;19550;42.872;25.494;2022-12-18T08:02:40;97640.00;;;8.02;100.00
33185;BME280;19550;42.872;25.494;2022-12-18T08:05:07;97652.72;;;8.18;100.00
33185;BME280;19550;42.872;25.494;2022-12-18T08:07:34;97652.44;;;8.20;100.00
33185;BME280;19550;42.872;25.494;2022-12-18T08:10:01;97654.94;;;8.16;100.00
33185;BME280;19550;42.872;25.494;2022-12-18T08:12:28;97647.50;;;8.17;100.00
33185;BME280;19550;42.872;25.494;2022-12-18T08:14:55;97656.03;;;8.10;100.00
33185;BME280;19550;42.872;25.494;2022-12-18T08:17:22;97650.78;;;8.14;100.00
33185;BME280;19550;42.872;25.494;2022-12-18T08:19:50;97645.81;;;8.16;100.00
33185;BME280;19550;42.872;25.494;2022-12-18T08:22:17;97640.03;;;8.22;100.00
33185;BME280;19550;42.872;25.494;2022-12-18T08:24:46;97657.75;;;8.36;100.00
33185;BME280;19550;42.872;25.494;2022-12-18T08:27:13;97655.53;;;8.33;100.00
33185;BME280;19550;42.872;25.494;2022-12-18T08:29:40;97658.31;;;8.49;100.00
33185;BME280;19550;42.872;25.494;2022-12-18T08:32:07;97666.03;;;8.52;100.00
33185;BME280;19550;42.872;25.494;2022-12-18T08:34:34;97665.22;;;8.41;96.72
33185;BME280;19550;42.872;25.494;2022-12-18T08:37:02;97643.38;;;8.34;96.67
33185;BME280;19550;42.872;25.494;2022-12-18T08:39:29;97673.22;;;8.68;94.21
33185;BME280;19550;42.872;25.494;2022-12-18T08:41:56;97653.06;;;8.57;92.45
33185;BME280;19550;42.872;25.494;2022-12-18T08:44:40;97669.91;;;8.61;91.10
33185;BME280;19550;42.872;25.494;2022-12-18T08:47:08;97672.09;;;8.59;93.62
33185;BME280;19550;42.872;25.494;2022-12-18T08:49:35;97671.56;;;8.62;94.65
33185;BME280;19550;42.872;25.494;2022-12-18T08:52:03;97674.88;;;8.54;91.12
33185;BME280;19550;42.872;25.494;2022-12-18T08:54:30;97666.59;;;8.59;92.95
33185;BME280;19550;42.872;25.494;2022-12-18T08:56:57;97665.78;;;8.63;92.78
33185;BME280;19550;42.872;25.494;2022-12-18T08:59:24;97658.84;;;8.66;92.16
33185;BME280;19550;42.872;25.494;2022-12-18T09:01:53;97667.97;;;8.66;89.24
33185;BME280;19550;42.872;25.494;2022-12-18T09:04:20;97666.59;;;8.69;88.76
33185;BME280;19550;42.872;25.494;2022-12-18T09:06:47;97667.44;;;8.69;86.67
33185;BME280;19550;42.872;25.494;2022-12-18T09:09:15;97673.22;;;8.58;84.52
33185;BME280;19550;42.872;25.494;2022-12-18T09:11:42;97677.09;;;8.52;84.57
33185;BME280;19550;42.872;25.494;2022-12-18T09:14:10;97676.53;;;8.34;85.64
33185;BME280;19550;42.872;25.494;2022-12-18T09:16:36;97673.22;;;8.38;85.31
33185;BME280;19550;42.872;25.494;2022-12-18T09:19:04;97679.84;;;8.47;86.01
33185;BME280;19550;42.872;25.494;2022-12-18T09:21:32;97678.47;;;8.54;85.82
33185;BME280;19550;42.872;25.494;2022-12-18T09:23:59;97683.44;;;8.42;85.03
33185;BME280;19550;42.872;25.494;2022-12-18T09:26:27;97650.00;;;8.33;85.42
33185;BME280;19550;42.872;25.494;2022-12-18T09:28:54;97680.69;;;8.52;84.78
33185;BME280;19550;42.872;25.494;2022-12-18T09:31:23;97676.25;;;8.46;85.45
33185;BME280;19550;42.872;25.494;2022-12-18T09:33:50;97674.63;;;8.50;84.59
33185;BME280;19550;42.872;25.494;2022-12-18T09:36:17;97680.13;;;8.45;84.33
33185;BME280;19550;42.872;25.494;2022-12-18T09:38:44;97681.78;;;8.46;85.09
33185;BME280;19550;42.872;25.494;2022-12-18T09:41:23;97676.81;;;8.38;84.06
33185;BME280;19550;42.872;25.494;2022-12-18T09:43:57;97680.69;;;8.52;85.71
33185;BME280;19550;42.872;25.494;2022-12-18T09:46:27;97682.06;;;8.60;85.18
33185;BME280;19550;42.872;25.494;2022-12-18T09:48:58;97670.44;;;8.73;85.22
33185;BME280;19550;42.872;25.494;2022-12-18T09:51:30;97675.44;;;8.76;84.39
33185;BME280;19550;42.872;25.494;2022-12-18T09:54:03;97684.28;;;8.83;84.69
33185;BME280;19550;42.872;25.494;2022-12-18T09:56:35;97668.50;;;8.78;84.48
33185;BME280;19550;42.872;25.494;2022-12-18T09:59:04;97674.31;;;8.87;83.75
33185;BME280;19550;42.872;25.494;2022-12-18T10:01:32;97672.66;;;8.86;83.33
33185;BME280;19550;42.872;25.494;2022-12-18T10:03:59;97673.78;;;8.90;83.64
33185;BME280;19550;42.872;25.494;2022-12-18T10:06:29;97647.22;;;8.89;83.81
33185;BME280;19550;42.872;25.494;2022-12-18T10:09:03;97662.44;;;8.76;83.59
33185;BME280;19550;42.872;25.494;2022-12-18T10:11:39;97672.34;;;8.93;84.06
33185;BME280;19550;42.872;25.494;2022-12-18T10:14:23;97669.91;;;8.81;84.01
33185;BME280;19550;42.872;25.494;2022-12-18T10:17:02;97660.50;;;8.82;83.78
33185;BME280;19550;42.872;25.494;2022-12-18T10:19:39;97656.63;;;8.88;84.65
33185;BME280;19550;42.872;25.494;2022-12-18T10:22:17;97660.78;;;8.75;84.51
33185;BME280;19550;42.872;25.494;2022-12-18T10:24:54;97672.66;;;8.66;84.11
33185;BME280;19550;42.872;25.494;2022-12-18T10:27:25;97667.69;;;8.68;84.62
33185;BME280;19550;42.872;25.494;2022-12-18T10:29:54;97663.00;;;8.68;84.48
33185;BME280;19550;42.872;25.494;2022-12-18T10:32:23;97659.94;;;8.65;84.54
33185;BME280;19550;42.872;25.494;2022-12-18T10:34:54;97664.09;;;8.67;84.34
33185;BME280;19550;42.872;25.494;2022-12-18T10:37:23;97668.81;;;8.77;84.05
33185;BME280;19550;42.872;25.494;2022-12-18T10:40:07;97669.91;;;8.66;83.69
33185;BME280;19550;42.872;25.494;2022-12-18T10:42:34;97668.78;;;8.72;84.34
33185;BME280;19550;42.872;25.494;2022-12-18T10:45:06;97672.09;;;8.89;84.96
33185;BME280;19550;42.872;25.494;2022-12-18T10:47:35;97672.91;;;8.95;85.19
33185;BME280;19550;42.872;25.494;2022-12-18T10:50:02;97674.84;;;8.94;84.08
33185;BME280;19550;42.872;25.494;2022-12-18T10:52:30;97679.81;;;9.02;83.14
33185;BME280;19550;42.872;25.494;2022-12-18T10:54:58;97683.72;;;8.86;83.50
33185;BME280;19550;42.872;25.494;2022-12-18T10:57:32;97674.31;;;8.87;83.09
33185;BME280;19550;42.872;25.494;2022-12-18T11:00:21;97679.56;;;8.78;81.55
33185;BME280;19550;42.872;25.494;2022-12-18T11:02:49;97680.69;;;8.72;80.56
33185;BME280;19550;42.872;25.494;2022-12-18T11:05:25;97680.41;;;8.84;83.11
33185;BME280;19550;42.872;25.494;2022-12-18T11:07:54;97681.78;;;8.61;79.01
33185;BME280;19550;42.872;25.494;2022-12-18T11:10:23;97689.81;;;8.63;78.61
33185;BME280;19550;42.872;25.494;2022-12-18T11:12:51;97675.69;;;8.59;78.42
33185;BME280;19550;42.872;25.494;2022-12-18T11:15:23;97659.41;;;8.63;78.41
33185;BME280;19550;42.872;25.494;2022-12-18T11:17:53;97693.41;;;8.89;79.28
33185;BME280;19550;42.872;25.494;2022-12-18T11:20:27;97694.75;;;9.01;78.12
33185;BME280;19550;42.872;25.494;2022-12-18T11:22:58;97693.91;;;9.06;77.37
33185;BME280;19550;42.872;25.494;2022-12-18T11:25:29;97696.72;;;8.96;75.67
33185;BME280;19550;42.872;25.494;2022-12-18T11:27:58;97701.41;;;8.75;75.02
33185;BME280;19550;42.872;25.494;2022-12-18T11:30:28;97697.25;;;8.93;75.15
33185;BME280;19550;42.872;25.494;2022-12-18T11:33:00;97695.88;;;8.85;74.20
33185;BME280;19550;42.872;25.494;2022-12-18T11:35:37;97698.66;;;8.75;73.29
33185;BME280;19550;42.872;25.494;2022-12-18T11:38:12;97686.47;;;8.71;74.39
33185;BME280;19550;42.872;25.494;2022-12-18T11:40:46;97698.09;;;8.83;73.53
33185;BME280;19550;42.872;25.494;2022-12-18T11:43:16;97701.16;;;8.76;72.60
33185;BME280;19550;42.872;25.494;2022-12-18T11:45:52;97700.84;;;8.78;72.65
33185;BME280;19550;42.872;25.494;2022-12-18T11:48:23;97703.91;;;8.82;72.47
33185;BME280;19550;42.872;25.494;2022-12-18T11:50:53;97696.44;;;8.82;72.19
33185;BME280;19550;42.872;25.494;2022-12-18T11:53:22;97692.84;;;8.82;70.11
33185;BME280;19550;42.872;25.494;2022-12-18T11:55:56;97693.13;;;8.80;69.08
33185;BME280;19550;42.872;25.494;2022-12-18T11:58:35;97703.06;;;8.71;68.30
33185;BME280;19550;42.872;25.494;2022-12-18T12:01:13;97711.09;;;8.62;68.55
33185;BME280;19550;42.872;25.494;2022-12-18T12:04:03;97711.34;;;8.41;67.15
33185;BME280;19550;42.872;25.494;2022-12-18T12:06:40;97709.09;;;8.22;67.54
33185;BME280;19550;42.872;25.494;2022-12-18T12:09:17;97707.72;;;8.30;67.79
33185;BME280;19550;42.872;25.494;2022-12-18T12:11:58;97704.13;;;8.29;68.76
33185;BME280;19550;42.872;25.494;2022-12-18T12:14:39;97716.03;;;8.40;67.36
33185;BME280;19550;42.872;25.494;2022-12-18T12:17:15;97702.19;;;8.30;66.98
33185;BME280;19550;42.872;25.494;2022-12-18T12:19:49;97689.50;;;8.34;67.84
33185;BME280;19550;42.872;25.494;2022-12-18T12:22:24;97707.78;;;8.55;66.66
33185;BME280;19550;42.872;25.494;2022-12-18T12:25:04;97708.34;;;8.57;67.41
33185;BME280;19550;42.872;25.494;2022-12-18T12:27:39;97708.59;;;8.56;65.92
33185;BME280;19550;42.872;25.494;2022-12-18T12:30:16;97711.38;;;8.51;63.99
33185;BME280;19550;42.872;25.494;2022-12-18T12:32:55;97717.44;;;8.38;64.53
33185;BME280;19550;42.872;25.494;2022-12-18T12:35:36;97713.50;;;8.23;64.72
33185;BME280;19550;42.872;25.494;2022-12-18T12:38:10;97722.31;;;8.15;65.32
33185;BME280;19550;42.872;25.494;2022-12-18T12:40:41;97715.16;;;8.24;65.08
33185;BME280;19550;42.872;25.494;2022-12-18T12:43:20;97714.34;;;8.29;65.70
33185;BME280;19550;42.872;25.494;2022-12-18T12:45:50;97717.97;;;8.40;65.23
33185;BME280;19550;42.872;25.494;2022-12-18T12:48:29;97690.56;;;8.13;67.14
33185;BME280;19550;42.872;25.494;2022-12-18T12:51:00;97727.66;;;8.37;66.92
33185;BME280;19550;42.872;25.494;2022-12-18T12:53:31;97737.34;;;8.50;68.08
33185;BME280;19550;42.872;25.494;2022-12-18T12:56:01;97739.53;;;8.38;66.24
33185;BME280;19550;42.872;25.494;2022-12-18T12:58:34;97738.97;;;8.35;69.44
33185;BME280;19550;42.872;25.494;2022-12-18T13:01:14;97740.06;;;8.40;67.99
33185;BME280;19550;42.872;25.494;2022-12-18T13:03:54;97738.72;;;8.42;69.09
33185;BME280;19550;42.872;25.494;2022-12-18T13:06:37;97745.91;;;8.43;68.27